Time;durP1;ratioP1;P1;durP2;ratioP2;P2;SDS_P1;SDS_P2;PMS_P1;PMS_P2;Temp;Humidity;BMP_temperature;BMP_pressure;BME280_temperature;BME280_humidity;BME280_pressure;Samples;Min_cycle;Max_cycle;Signal;HPM_P1;HPM_P2
2023/02/06 00:00:43;;;;;;;2.35;0.90;;;5.90;99.90;;;;;;6193855;23;20009;-77
2023/02/06 00:03:09;;;;;;;6.05;1.10;;;5.90;99.90;;;;;;6219908;23;20054;-78
2023/02/06 00:05:35;;;;;;;3.78;1.20;;;5.90;99.90;;;;;;6220524;23;20004;-77
2023/02/06 00:08:01;;;;;;;4.07;0.77;;;5.90;99.90;;;;;;6219409;23;20011;-77
2023/02/06 00:10:27;;;;;;;4.55;1.20;;;5.80;99.90;;;;;;6220527;23;20000;-78
2023/02/06 00:12:53;;;;;;;3.22;1.00;;;5.80;99.90;;;;;;6194384;23;20005;-77
2023/02/06 00:15:18;;;;;;;3.45;1.10;;;5.80;99.90;;;;;;6194537;23;20019;-77
2023/02/06 00:17:44;;;;;;;4.90;1.23;;;5.80;99.90;;;;;;6220982;23;19996;-77
2023/02/06 00:20:10;;;;;;;1.70;0.77;;;5.80;99.90;;;;;;6221028;23;20012;-77
2023/02/06 00:22:36;;;;;;;3.45;0.95;;;5.80;99.90;;;;;;6220517;23;20001;-77
2023/02/06 00:25:02;;;;;;;5.13;1.10;;;5.80;99.90;;;;;;6194046;23;20012;-77
2023/02/06 00:27:28;;;;;;;3.28;1.38;;;5.80;99.90;;;;;;6220728;23;20311;-76
2023/02/06 00:29:53;;;;;;;2.92;1.13;;;5.80;99.90;;;;;;6220995;23;20872;-77
2023/02/06 00:32:19;;;;;;;5.47;1.45;;;5.80;99.90;;;;;;6221113;23;19996;-77
2023/02/06 00:34:44;;;;;;;2.95;1.20;;;5.80;99.90;;;;;;6220925;23;20012;-78
2023/02/06 00:37:11;;;;;;;5.10;1.08;;;5.70;99.90;;;;;;6220388;23;20004;-78
2023/02/06 00:39:36;;;;;;;5.47;1.20;;;5.60;99.90;;;;;;6220631;23;20341;-77
2023/02/06 00:42:03;;;;;;;2.78;1.05;;;5.60;99.90;;;;;;6220526;23;20007;-77
2023/02/06 00:44:28;;;;;;;3.72;1.15;;;5.60;99.90;;;;;;6220958;23;20032;-77
2023/02/06 00:46:54;;;;;;;4.28;1.40;;;5.60;99.90;;;;;;6220421;23;20005;-77
2023/02/06 00:49:20;;;;;;;3.92;1.20;;;5.60;99.90;;;;;;6219184;23;20008;-76
2023/02/06 00:51:46;;;;;;;3.13;1.17;;;5.50;99.90;;;;;;6218951;23;20426;-77
2023/02/06 00:54:12;;;;;;;2.60;1.00;;;5.50;99.90;;;;;;6193873;23;20005;-77
2023/02/06 00:56:38;;;;;;;3.83;1.30;;;5.50;99.90;;;;;;6194342;23;20040;-77
2023/02/06 00:59:03;;;;;;;2.30;0.90;;;5.40;99.90;;;;;;6220566;23;20001;-77
2023/02/06 01:01:29;;;;;;;3.47;0.85;;;5.50;99.90;;;;;;6220600;23;20058;-76
2023/02/06 01:03:55;;;;;;;1.73;0.80;;;5.40;99.90;;;;;;6194098;23;20009;-78
2023/02/06 01:06:20;;;;;;;3.72;1.23;;;5.50;99.90;;;;;;6220646;23;20615;-77
2023/02/06 01:08:47;;;;;;;3.17;0.98;;;5.50;99.90;;;;;;6220308;23;20415;-77
2023/02/06 01:11:19;;;;;;;3.22;1.10;;;5.40;99.90;;;;;;6220453;23;20000;-77
2023/02/06 01:13:46;;;;;;;3.60;0.85;;;5.30;99.90;;;;;;6220633;23;20047;-77
2023/02/06 01:16:14;;;;;;;3.90;1.15;;;5.20;99.90;;;;;;6220541;23;20035;-77
2023/02/06 01:18:40;;;;;;;2.25;0.90;;;5.20;99.90;;;;;;6220418;23;20025;-77
2023/02/06 01:21:11;;;;;;;2.85;1.00;;;5.20;99.90;;;;;;6220384;23;20000;-77
2023/02/06 01:23:41;;;;;;;2.45;1.00;;;5.20;99.90;;;;;;6220157;23;20000;-76
2023/02/06 01:26:09;;;;;;;3.28;1.08;;;5.10;99.90;;;;;;6220514;23;20011;-77
2023/02/06 01:28:37;;;;;;;3.22;1.10;;;5.10;99.90;;;;;;6220333;23;20000;-77
2023/02/06 01:31:31;;;;;;;2.67;0.88;;;5.00;99.90;;;;;;6220557;23;19997;-77
2023/02/06 01:33:58;;;;;;;3.75;1.20;;;4.90;99.90;;;;;;6194139;23;20001;-76
2023/02/06 01:36:24;;;;;;;3.08;1.27;;;4.90;99.90;;;;;;6193804;23;20472;-77
2023/02/06 01:38:50;;;;;;;2.88;1.00;;;4.90;99.90;;;;;;6203218;23;20438;-77
2023/02/06 01:41:18;;;;;;;2.83;1.20;;;4.90;99.90;;;;;;6220287;23;20004;-76
2023/02/06 01:44:14;;;;;;;3.33;0.80;;;4.90;99.90;;;;;;6220534;23;20315;-76
2023/02/06 01:46:42;;;;;;;3.67;1.27;;;4.90;99.90;;;;;;6218470;23;20079;-77
2023/02/06 01:49:16;;;;;;;3.08;1.15;;;4.80;99.90;;;;;;6220240;23;20064;-77
2023/02/06 01:51:42;;;;;;;1.58;0.73;;;4.80;99.90;;;;;;6220449;23;20001;-77
2023/02/06 01:54:09;;;;;;;3.88;1.00;;;4.80;99.90;;;;;;6220964;23;20004;-76
2023/02/06 01:56:42;;;;;;;3.35;1.15;;;4.80;99.90;;;;;;6222499;23;20000;-77
2023/02/06 01:59:08;;;;;;;3.05;0.77;;;4.70;99.90;;;;;;6222514;23;20085;-77
2023/02/06 02:01:34;;;;;;;3.75;1.10;;;4.70;99.90;;;;;;6222412;23;20001;-77
2023/02/06 02:04:09;;;;;;;3.58;0.88;;;4.70;99.90;;;;;;6222448;23;20008;-77
2023/02/06 02:06:35;;;;;;;3.75;1.00;;;4.90;99.90;;;;;;6222754;23;20060;-77
2023/02/06 02:09:03;;;;;;;5.22;1.48;;;4.90;99.90;;;;;;6221962;23;20434;-77
2023/02/06 02:11:34;;;;;;;2.78;1.05;;;5.00;99.90;;;;;;6222238;23;20035;-77
2023/02/06 02:14:02;;;;;;;3.97;0.93;;;5.00;99.90;;;;;;6221130;23;20005;-77
2023/02/06 02:16:45;;;;;;;2.55;0.98;;;5.00;99.90;;;;;;6222124;23;20127;-77
2023/02/06 02:20:08;;;;;;;3.28;1.20;;;4.90;99.90;;;;;;6222335;23;20001;-77
2023/02/06 02:22:48;;;;;;;2.90;0.95;;;4.80;99.90;;;;;;6076577;23;20041;-77
2023/02/06 02:25:33;;;;;;;3.28;1.27;;;4.80;99.90;;;;;;6101019;23;20408;-77
2023/02/06 02:28:26;;;;;;;3.00;0.80;;;4.80;99.90;;;;;;6184319;23;20476;-77
2023/02/06 02:31:03;;;;;;;2.08;0.85;;;4.70;99.90;;;;;;6222173;23;20425;-77
2023/02/06 02:34:07;;;;;;;3.65;0.88;;;4.70;99.90;;;;;;6220486;23;20027;-77
2023/02/06 02:36:58;;;;;;;3.70;1.00;;;4.60;99.90;;;;;;6214194;23;20438;-77
2023/02/06 02:39:54;;;;;;;2.47;0.80;;;4.60;99.90;;;;;;6221531;23;20017;-77
2023/02/06 02:42:48;;;;;;;2.70;0.70;;;4.60;99.90;;;;;;6222214;23;20000;-77
2023/02/06 02:45:27;;;;;;;2.58;0.73;;;4.60;99.90;;;;;;6175648;23;20043;-77
2023/02/06 02:48:05;;;;;;;3.42;0.85;;;4.70;99.90;;;;;;6221572;23;20055;-77
2023/02/06 02:50:32;;;;;;;2.67;1.00;;;4.70;99.90;;;;;;6197411;23;20503;-77
2023/02/06 02:52:59;;;;;;;2.22;0.80;;;4.70;99.90;;;;;;6195276;23;20095;-77
2023/02/06 02:55:25;;;;;;;2.70;0.63;;;4.70;99.90;;;;;;6222034;23;20024;-77
2023/02/06 02:57:57;;;;;;;3.38;0.85;;;4.80;99.90;;;;;;6221982;23;20007;-77
2023/02/06 03:00:25;;;;;;;2.97;0.98;;;4.80;99.90;;;;;;6195349;23;20001;-77
2023/02/06 03:02:53;;;;;;;2.63;1.00;;;4.70;99.90;;;;;;6195300;23;20024;-77
2023/02/06 03:05:23;;;;;;;4.07;1.17;;;4.70;99.90;;;;;;6221624;23;20001;-77
2023/02/06 03:08:22;;;;;;;3.67;0.93;;;4.60;99.90;;;;;;6221573;23;20422;-77
2023/02/06 03:11:02;;;;;;;4.00;1.17;;;4.60;99.90;;;;;;6222068;23;20067;-77
2023/02/06 03:13:37;;;;;;;3.75;1.10;;;4.50;99.90;;;;;;6221837;23;19997;-77
2023/02/06 03:16:16;;;;;;;4.38;1.00;;;4.50;99.90;;;;;;6221884;23;20001;-77
2023/02/06 03:18:49;;;;;;;1.65;0.85;;;4.40;99.90;;;;;;6221551;23;20028;-77
2023/02/06 03:21:18;;;;;;;4.07;0.80;;;4.50;99.90;;;;;;6221849;23;20052;-78
2023/02/06 03:23:46;;;;;;;1.10;0.60;;;4.40;99.90;;;;;;6221190;23;20004;-78
2023/02/06 03:26:15;;;;;;;1.83;0.60;;;4.40;99.90;;;;;;6221540;23;20068;-77
2023/02/06 03:28:51;;;;;;;2.83;0.88;;;4.50;99.90;;;;;;6221424;23;20442;-77
2023/02/06 03:31:23;;;;;;;2.42;0.57;;;4.50;99.90;;;;;;6221591;23;20000;-77
2023/02/06 03:34:02;;;;;;;2.78;0.82;;;4.40;99.90;;;;;;6221519;23;20023;-77
2023/02/06 03:36:28;;;;;;;3.90;0.82;;;4.40;99.90;;;;;;6221347;23;20054;-77
2023/02/06 03:38:54;;;;;;;6.45;0.98;;;4.50;99.90;;;;;;6221166;23;20016;-77
2023/02/06 03:41:26;;;;;;;3.35;1.40;;;4.40;99.90;;;;;;6195006;23;20013;-77
2023/02/06 03:43:52;;;;;;;2.80;0.93;;;4.40;99.90;;;;;;6194977;23;20027;-77
2023/02/06 03:46:19;;;;;;;4.00;1.50;;;4.30;99.90;;;;;;6219790;23;20032;-77
2023/02/06 03:48:50;;;;;;;4.85;0.85;;;4.30;99.90;;;;;;6194049;23;20008;-77
2023/02/06 03:51:27;;;;;;;4.25;1.02;;;4.20;99.90;;;;;;6221433;23;20047;-77
2023/02/06 03:53:54;;;;;;;3.47;1.15;;;4.20;99.90;;;;;;6220979;23;20076;-78
2023/02/06 03:56:31;;;;;;;4.18;0.85;;;4.10;99.90;;;;;;6220296;23;20428;-77
2023/02/06 03:58:56;;;;;;;2.72;0.93;;;4.10;99.90;;;;;;6221272;23;20426;-78
2023/02/06 04:01:22;;;;;;;1.90;0.75;;;4.10;99.90;;;;;;6221220;23;20036;-78
2023/02/06 04:03:49;;;;;;;4.90;0.80;;;4.10;99.90;;;;;;6221362;23;20028;-77
2023/02/06 04:06:15;;;;;;;3.22;0.75;;;4.00;99.90;;;;;;6221236;23;20001;-77
2023/02/06 04:08:40;;;;;;;3.50;1.08;;;4.10;99.90;;;;;;6220891;23;20016;-77
2023/02/06 04:11:06;;;;;;;3.97;0.88;;;4.10;99.90;;;;;;6194658;23;20008;-77
2023/02/06 04:13:32;;;;;;;3.10;0.88;;;4.10;99.90;;;;;;6194586;23;20005;-78
2023/02/06 04:15:57;;;;;;;3.92;1.10;;;4.00;99.90;;;;;;6194746;23;20001;-77
2023/02/06 04:18:23;;;;;;;1.60;0.85;;;4.00;99.90;;;;;;6220618;23;20084;-77
2023/02/06 04:20:51;;;;;;;3.85;1.13;;;4.00;99.90;;;;;;6194709;23;20011;-77
2023/02/06 04:23:18;;;;;;;2.97;1.02;;;4.00;99.90;;;;;;6220988;23;20004;-77
2023/02/06 04:25:44;;;;;;;3.20;0.80;;;4.00;99.90;;;;;;6194630;23;20051;-77
2023/02/06 04:28:09;;;;;;;3.05;0.95;;;3.90;99.90;;;;;;6220735;23;20442;-77
2023/02/06 04:30:35;;;;;;;3.17;0.90;;;3.90;99.90;;;;;;6221103;23;20364;-77
2023/02/06 04:33:00;;;;;;;3.42;1.00;;;4.00;99.90;;;;;;6220813;23;20334;-78
2023/02/06 04:35:26;;;;;;;4.13;1.00;;;3.90;99.90;;;;;;6194473;23;20001;-77
2023/02/06 04:37:52;;;;;;;3.63;0.88;;;3.90;99.90;;;;;;6220461;23;20000;-78
2023/02/06 04:40:18;;;;;;;4.35;1.20;;;3.90;99.90;;;;;;6221169;23;20001;-77
2023/02/06 04:42:43;;;;;;;2.55;0.90;;;3.90;99.90;;;;;;6220469;23;20008;-77
2023/02/06 04:45:09;;;;;;;7.22;1.20;;;3.80;99.90;;;;;;6220817;23;20001;-77
2023/02/06 04:47:34;;;;;;;2.72;0.85;;;3.90;99.90;;;;;;6193906;23;20000;-77
2023/02/06 04:50:00;;;;;;;5.78;1.17;;;3.80;99.90;;;;;;6193900;23;20345;-77
2023/02/06 04:52:26;;;;;;;3.28;1.13;;;3.90;99.90;;;;;;6220633;23;20008;-77
2023/02/06 04:54:51;;;;;;;2.63;0.80;;;3.90;99.90;;;;;;6220758;23;20066;-77
2023/02/06 04:57:17;;;;;;;3.53;1.35;;;3.80;99.90;;;;;;6220792;23;20057;-77
2023/02/06 04:59:42;;;;;;;4.18;0.85;;;3.80;99.90;;;;;;6194791;23;20075;-77
2023/02/06 05:02:08;;;;;;;4.20;1.40;;;3.90;99.90;;;;;;6193783;23;20000;-77
2023/02/06 05:04:34;;;;;;;3.47;1.00;;;3.80;99.90;;;;;;6220716;23;20028;-77
2023/02/06 05:06:59;;;;;;;2.65;0.93;;;3.80;99.90;;;;;;6193920;23;20024;-77
2023/02/06 05:09:25;;;;;;;2.45;0.70;;;3.80;99.90;;;;;;6220830;23;20004;-77
2023/02/06 05:11:51;;;;;;;2.17;1.05;;;3.80;99.90;;;;;;6220995;23;20000;-77
2023/02/06 05:14:16;;;;;;;5.10;1.25;;;3.80;99.90;;;;;;6221042;23;20000;-77
2023/02/06 05:16:43;;;;;;;4.75;1.00;;;3.90;99.90;;;;;;6220116;23;20001;-77
2023/02/06 05:19:08;;;;;;;4.57;0.80;;;3.80;99.90;;;;;;6193770;23;20004;-77
2023/02/06 05:21:34;;;;;;;2.60;1.00;;;3.80;99.90;;;;;;6220501;23;20440;-77
2023/02/06 05:24:00;;;;;;;2.53;0.90;;;3.80;99.90;;;;;;6193673;23;20012;-77
2023/02/06 05:26:25;;;;;;;3.40;0.90;;;3.80;99.90;;;;;;6220282;23;20004;-77
2023/02/06 05:28:51;;;;;;;2.47;1.27;;;3.70;99.90;;;;;;6219979;23;20451;-77
2023/02/06 05:31:18;;;;;;;2.45;0.70;;;3.80;99.90;;;;;;6193955;23;20005;-77
2023/02/06 05:33:50;;;;;;;3.35;0.82;;;3.70;99.90;;;;;;6193824;23;20005;-77
2023/02/06 05:36:17;;;;;;;2.72;0.90;;;3.70;99.90;;;;;;6220518;23;20052;-77
2023/02/06 05:38:43;;;;;;;3.08;0.90;;;3.70;99.90;;;;;;6201602;23;20048;-78
2023/02/06 05:41:08;;;;;;;2.70;0.90;;;3.70;99.90;;;;;;6218635;23;20012;-77
2023/02/06 05:43:34;;;;;;;3.08;0.70;;;3.70;99.90;;;;;;6218620;23;20058;-77
2023/02/06 05:46:00;;;;;;;2.75;0.65;;;3.60;99.90;;;;;;6218906;23;20004;-77
2023/02/06 05:48:29;;;;;;;4.85;1.25;;;3.60;99.90;;;;;;6220160;23;20005;-77
2023/02/06 05:50:56;;;;;;;3.95;1.10;;;3.60;99.90;;;;;;6220222;23;20048;-77
2023/02/06 05:53:22;;;;;;;2.92;1.17;;;3.60;99.90;;;;;;6218636;23;20000;-77
2023/02/06 05:55:48;;;;;;;4.43;2.13;;;3.60;99.90;;;;;;6220479;23;19992;-77
2023/02/06 05:58:14;;;;;;;2.90;0.90;;;3.50;99.90;;;;;;6220443;23;20333;-77
2023/02/06 06:00:39;;;;;;;2.20;0.98;;;3.50;99.90;;;;;;6220336;23;20311;-77
2023/02/06 06:03:05;;;;;;;4.25;1.00;;;3.50;99.90;;;;;;6220293;23;20000;-77
2023/02/06 06:05:31;;;;;;;3.42;0.85;;;3.50;99.90;;;;;;6220322;23;20333;-77
2023/02/06 06:07:56;;;;;;;2.88;0.95;;;3.60;99.90;;;;;;6219936;23;20001;-77
2023/02/06 06:10:22;;;;;;;4.18;1.33;;;3.50;99.90;;;;;;6218880;23;20001;-77
2023/02/06 06:12:48;;;;;;;3.03;1.10;;;3.50;99.90;;;;;;6220349;23;20032;-77
2023/02/06 06:15:14;;;;;;;3.42;0.85;;;3.50;99.90;;;;;;6218623;23;20027;-77
2023/02/06 06:17:39;;;;;;;3.28;1.23;;;3.50;99.90;;;;;;6220347;23;19997;-77
2023/02/06 06:20:05;;;;;;;4.80;1.00;;;3.50;99.90;;;;;;6219833;23;20003;-77
2023/02/06 06:22:31;;;;;;;6.65;1.08;;;3.50;99.90;;;;;;6219873;23;20011;-77
2023/02/06 06:24:56;;;;;;;3.60;1.17;;;3.50;99.90;;;;;;6219711;23;20020;-76
2023/02/06 06:27:22;;;;;;;3.92;0.98;;;3.50;99.90;;;;;;6218669;23;20008;-77
2023/02/06 06:29:48;;;;;;;3.17;1.08;;;3.50;99.90;;;;;;6220222;23;20442;-76
2023/02/06 06:32:13;;;;;;;4.95;1.25;;;3.50;99.90;;;;;;6220794;23;20000;-77
2023/02/06 06:34:39;;;;;;;2.53;0.98;;;3.40;99.90;;;;;;6219895;23;20001;-76
2023/02/06 06:37:05;;;;;;;4.43;0.95;;;3.40;99.90;;;;;;6220006;23;20004;-76
2023/02/06 06:39:30;;;;;;;3.72;1.13;;;3.40;99.90;;;;;;6218102;23;20028;-76
2023/02/06 06:41:56;;;;;;;5.28;1.10;;;3.40;99.90;;;;;;6222276;23;20003;-76
2023/02/06 06:44:21;;;;;;;3.70;1.25;;;3.40;99.90;;;;;;6221900;23;20377;-77
2023/02/06 06:46:47;;;;;;;5.95;1.10;;;3.40;99.90;;;;;;6221762;23;19997;-77
2023/02/06 06:49:13;;;;;;;4.57;1.00;;;3.30;99.90;;;;;;6220995;23;20488;-77
2023/02/06 06:51:38;;;;;;;3.90;0.90;;;3.30;99.90;;;;;;6221647;23;20478;-77
2023/02/06 06:54:04;;;;;;;5.38;0.77;;;3.30;99.90;;;;;;6221237;23;20020;-76
2023/02/06 06:56:30;;;;;;;9.02;1.55;;;3.20;99.90;;;;;;6220364;23;20067;-76
2023/02/06 06:58:55;;;;;;;2.63;1.10;;;3.30;99.90;;;;;;6221438;23;20334;-76
2023/02/06 07:01:21;;;;;;;3.53;1.17;;;3.20;99.90;;;;;;6219013;23;20019;-77
2023/02/06 07:03:47;;;;;;;1.88;1.02;;;3.20;99.90;;;;;;6221247;23;20031;-75
2023/02/06 07:06:13;;;;;;;4.90;0.85;;;3.20;99.90;;;;;;6220942;23;20000;-76
2023/02/06 07:08:40;;;;;;;4.05;0.98;;;3.30;99.90;;;;;;6219938;23;20007;-77
2023/02/06 07:11:17;;;;;;;2.13;0.90;;;3.30;99.90;;;;;;6220129;23;20392;-77
2023/02/06 07:13:43;;;;;;;3.20;1.02;;;3.30;99.90;;;;;;6219260;23;20087;-80
2023/02/06 07:16:09;;;;;;;3.97;0.85;;;3.30;99.90;;;;;;6220113;23;20481;-79
2023/02/06 07:18:37;;;;;;;2.45;0.75;;;3.20;99.90;;;;;;6220363;23;20058;-78
2023/02/06 07:21:03;;;;;;;3.72;1.60;;;3.20;99.90;;;;;;6219386;23;20104;-78
2023/02/06 07:23:29;;;;;;;4.63;1.48;;;3.20;99.90;;;;;;6221213;23;20005;-77
2023/02/06 07:26:00;;;;;;;7.25;1.30;;;3.20;99.90;;;;;;6221597;23;20004;-77
2023/02/06 07:28:30;;;;;;;3.92;1.35;;;3.20;99.90;;;;;;6216903;23;20018;-77
2023/02/06 07:31:03;;;;;;;3.28;1.00;;;3.20;99.90;;;;;;6217370;23;20005;-77
2023/02/06 07:33:29;;;;;;;3.70;1.00;;;3.20;99.90;;;;;;6219135;23;20003;-76
2023/02/06 07:35:55;;;;;;;4.97;1.23;;;3.20;99.90;;;;;;6220838;23;20438;-77
2023/02/06 07:38:21;;;;;;;3.58;0.93;;;3.10;99.90;;;;;;6218835;23;20127;-77
2023/02/06 07:40:47;;;;;;;3.40;1.05;;;3.10;99.90;;;;;;6218161;23;20013;-77
2023/02/06 07:43:14;;;;;;;4.55;1.02;;;3.20;99.90;;;;;;6219751;23;20007;-77
2023/02/06 07:45:40;;;;;;;5.07;1.13;;;3.20;99.90;;;;;;6218850;23;20005;-77
2023/02/06 07:48:06;;;;;;;3.28;0.93;;;3.20;99.90;;;;;;6217309;23;20086;-77
2023/02/06 07:50:32;;;;;;;2.03;0.95;;;3.20;99.90;;;;;;6218456;23;20010;-77
2023/02/06 07:52:58;;;;;;;4.00;1.00;;;3.20;99.90;;;;;;6219305;23;20011;-77
2023/02/06 07:55:23;;;;;;;4.55;1.00;;;3.20;99.90;;;;;;6219857;23;20001;-77
2023/02/06 07:57:49;;;;;;;3.67;0.98;;;3.30;99.90;;;;;;6218975;23;20426;-77
2023/02/06 08:00:15;;;;;;;4.43;0.90;;;3.30;99.90;;;;;;6219019;23;20003;-77
2023/02/06 08:02:41;;;;;;;2.78;1.00;;;3.30;99.90;;;;;;6217627;23;20015;-77
2023/02/06 08:05:07;;;;;;;3.03;0.90;;;3.40;99.90;;;;;;6218110;23;20080;-77
2023/02/06 08:07:33;;;;;;;4.03;0.90;;;3.40;99.90;;;;;;6216724;23;20353;-77
2023/02/06 08:09:59;;;;;;;1.95;0.70;;;3.40;99.90;;;;;;6218857;23;20039;-76
2023/02/06 08:12:25;;;;;;;4.35;1.13;;;3.40;99.90;;;;;;6219256;23;20357;-76
2023/02/06 08:14:51;;;;;;;2.40;0.70;;;3.40;99.90;;;;;;6220653;23;20699;-77
2023/02/06 08:17:18;;;;;;;2.72;0.80;;;3.50;99.90;;;;;;6219878;23;19997;-76
2023/02/06 08:19:43;;;;;;;5.15;1.75;;;3.50;99.90;;;;;;6217672;23;20000;-76
2023/02/06 08:22:09;;;;;;;4.68;0.95;;;3.50;99.90;;;;;;6220820;23;20079;-76
2023/02/06 08:24:35;;;;;;;4.13;0.90;;;3.60;99.90;;;;;;6220771;23;20061;-77
2023/02/06 08:27:00;;;;;;;3.63;1.55;;;3.50;99.90;;;;;;6220746;23;20139;-76
2023/02/06 08:29:26;;;;;;;4.03;1.30;;;3.60;99.90;;;;;;6220997;23;20060;-77
2023/02/06 08:31:52;;;;;;;3.03;1.02;;;3.60;99.90;;;;;;6220908;23;19997;-77
2023/02/06 08:34:17;;;;;;;3.45;1.00;;;3.60;99.90;;;;;;6221127;23;20001;-77
2023/02/06 08:36:43;;;;;;;3.50;1.10;;;3.60;99.90;;;;;;6220494;23;20009;-78
2023/02/06 08:39:12;;;;;;;1.83;0.75;;;3.60;99.90;;;;;;6219229;23;20055;-77
2023/02/06 08:41:39;;;;;;;2.17;0.85;;;3.70;99.90;;;;;;6220883;23;20015;-77
2023/02/06 08:44:10;;;;;;;3.22;1.17;;;3.80;99.90;;;;;;6219292;23;20008;-77
2023/02/06 08:46:37;;;;;;;2.33;0.98;;;3.90;99.90;;;;;;6220246;23;20080;-77
2023/02/06 08:49:12;;;;;;;4.45;1.10;;;3.90;99.90;;;;;;6220972;23;20060;-77
2023/02/06 08:51:38;;;;;;;4.18;1.30;;;3.90;99.90;;;;;;6219357;23;20008;-77
2023/02/06 08:54:07;;;;;;;5.60;1.63;;;4.00;99.90;;;;;;6220762;23;19997;-77
2023/02/06 08:56:34;;;;;;;4.53;1.00;;;4.00;99.90;;;;;;6220658;23;20024;-77
2023/02/06 08:59:00;;;;;;;4.60;1.50;;;4.00;99.90;;;;;;6220847;23;20066;-77
2023/02/06 09:01:28;;;;;;;3.30;1.35;;;4.00;99.90;;;;;;6220034;23;20330;-77
2023/02/06 09:03:55;;;;;;;3.35;1.25;;;4.00;99.90;;;;;;6220271;23;20079;-77
2023/02/06 09:06:21;;;;;;;2.70;1.00;;;4.00;99.90;;;;;;6220772;23;20080;-77
2023/02/06 09:08:47;;;;;;;3.40;1.38;;;4.10;99.90;;;;;;6220071;23;20422;-79
2023/02/06 09:11:15;;;;;;;3.88;1.05;;;4.10;99.90;;;;;;6220507;23;20027;-79
2023/02/06 09:13:42;;;;;;;3.25;1.20;;;4.20;99.90;;;;;;6220672;23;20055;-79
2023/02/06 09:16:08;;;;;;;3.30;1.48;;;4.20;99.90;;;;;;6219141;23;20005;-77
2023/02/06 09:18:35;;;;;;;3.65;1.33;;;4.20;99.90;;;;;;6218650;23;20500;-77
2023/02/06 09:21:14;;;;;;;2.83;1.73;;;4.30;99.90;;;;;;6220418;23;20035;-77
2023/02/06 09:23:42;;;;;;;6.35;1.80;;;4.20;99.90;;;;;;6220578;23;20005;-77
2023/02/06 09:26:09;;;;;;;3.42;1.25;;;4.20;99.90;;;;;;6219270;23;20009;-77
2023/02/06 09:28:35;;;;;;;2.55;1.25;;;4.20;99.90;;;;;;6220673;23;20004;-77
2023/02/06 09:31:01;;;;;;;3.00;1.45;;;4.30;99.90;;;;;;6218888;23;20001;-77
2023/02/06 09:33:27;;;;;;;2.50;1.30;;;4.30;99.90;;;;;;6220491;23;20023;-78
2023/02/06 09:36:11;;;;;;;6.50;1.50;;;4.30;99.90;;;;;;6220450;23;19996;-77
2023/02/06 09:38:48;;;;;;;3.80;1.90;;;4.40;99.90;;;;;;6218789;23;20092;-77
2023/02/06 09:41:47;;;;;;;4.70;1.70;;;4.40;99.90;;;;;;6218603;23;20008;-78
2023/02/06 09:44:32;;;;;;;6.00;1.50;;;4.40;99.90;;;;;;6210821;23;20009;-78
2023/02/06 09:47:23;;;;;;;3.78;1.38;;;4.50;99.90;;;;;;6219938;23;20004;-78
2023/02/06 09:49:57;;;;;;;3.10;1.33;;;4.60;99.90;;;;;;6220203;23;20004;-78
2023/02/06 09:52:51;;;;;;;3.17;1.50;;;4.60;99.90;;;;;;6218601;23;20007;-78
2023/02/06 09:55:38;;;;;;;3.83;1.45;;;4.60;99.90;;;;;;6218488;23;20000;-79
2023/02/06 09:58:24;;;;;;;5.22;1.48;;;4.70;99.90;;;;;;6218742;23;20059;-78
2023/02/06 10:01:20;;;;;;;5.10;1.70;;;4.70;99.90;;;;;;6220250;23;19997;-78
2023/02/06 10:04:18;;;;;;;4.80;1.50;;;4.70;99.90;;;;;;6220693;23;19997;-77
2023/02/06 10:06:49;;;;;;;4.72;1.58;;;4.70;99.90;;;;;;6219802;23;20430;-77
2023/02/06 10:09:17;;;;;;;3.60;1.42;;;4.80;99.90;;;;;;6218241;23;20005;-77
2023/02/06 10:11:59;;;;;;;5.22;1.55;;;4.80;99.90;;;;;;6220277;23;19997;-78
2023/02/06 10:14:58;;;;;;;2.40;1.30;;;4.80;99.90;;;;;;6220232;23;20031;-78
2023/02/06 10:17:28;;;;;;;3.70;1.45;;;4.90;99.90;;;;;;6221602;23;20023;-78
2023/02/06 10:20:16;;;;;;;4.80;1.42;;;4.90;99.90;;;;;;6220887;23;20355;-79
2023/02/06 10:22:49;;;;;;;2.22;1.33;;;5.00;99.90;;;;;;6221905;23;20075;-78
2023/02/06 10:25:28;;;;;;;4.82;1.60;;;5.10;99.90;;;;;;6220560;23;20099;-79
2023/02/06 10:27:58;;;;;;;3.60;1.48;;;5.10;99.90;;;;;;6222213;23;20009;-78
2023/02/06 10:30:54;;;;;;;3.08;1.50;;;5.20;99.90;;;;;;6220586;23;20001;-79
2023/02/06 10:33:31;;;;;;;6.45;1.92;;;5.20;99.90;;;;;;6221956;23;20422;-80
2023/02/06 10:36:21;;;;;;;4.50;1.70;;;5.20;99.90;;;;;;6222043;23;20001;-79
2023/02/06 10:39:22;;;;;;;5.10;1.60;;;5.20;99.90;;;;;;6221784;23;20013;-79
2023/02/06 10:42:11;;;;;;;6.32;1.55;;;5.20;99.90;;;;;;6222057;23;20024;-79
2023/02/06 10:44:52;;;;;;;5.38;1.30;;;5.30;99.90;;;;;;6222031;23;20456;-79
2023/02/06 10:47:49;;;;;;;3.05;1.42;;;5.30;99.90;;;;;;6194987;23;20035;-79
2023/02/06 10:50:25;;;;;;;3.88;1.48;;;5.30;99.90;;;;;;6214642;23;20333;-79
2023/02/06 10:52:54;;;;;;;3.85;1.33;;;5.40;99.90;;;;;;6221629;23;20001;-79
2023/02/06 10:55:27;;;;;;;3.83;1.10;;;5.40;99.90;;;;;;6221971;23;20000;-79
2023/02/06 10:58:34;;;;;;;5.05;1.67;;;5.50;99.90;;;;;;6221517;23;20371;-79
2023/02/06 11:01:00;;;;;;;1.88;0.85;;;5.50;99.90;;;;;;6129896;23;20017;-79
2023/02/06 11:03:30;;;;;;;6.35;1.50;;;5.50;99.90;;;;;;6202598;23;20457;-79
2023/02/06 11:05:58;;;;;;;3.90;1.08;;;5.50;99.90;;;;;;6195039;23;20027;-79
2023/02/06 11:08:39;;;;;;;2.83;1.30;;;5.60;99.90;;;;;;6221133;23;20011;-80
2023/02/06 11:11:28;;;;;;;3.97;1.45;;;5.70;99.90;;;;;;6194993;23;20071;-79
2023/02/06 11:14:24;;;;;;;3.13;1.33;;;5.70;99.90;;;;;;6194981;23;20377;-80
2023/02/06 11:16:50;;;;;;;3.22;1.20;;;5.70;99.90;;;;;;6194388;23;20005;-79
2023/02/06 11:19:36;;;;;;;6.22;1.40;;;5.70;99.90;;;;;;6194732;23;20092;-79
2023/02/06 11:22:09;;;;;;;3.83;1.30;;;5.80;99.90;;;;;;6194533;23;20034;-80
2023/02/06 11:24:36;;;;;;;3.72;1.20;;;5.80;99.90;;;;;;6221568;23;20011;-80
2023/02/06 11:27:11;;;;;;;4.25;1.25;;;5.90;99.90;;;;;;6221403;23;20004;-80
2023/02/06 11:29:44;;;;;;;4.25;1.48;;;5.90;99.90;;;;;;6221310;23;20027;-79
2023/02/06 11:32:35;;;;;;;4.65;1.55;;;6.00;99.90;;;;;;6221589;23;20053;-79
2023/02/06 11:35:06;;;;;;;4.07;1.90;;;6.00;99.90;;;;;;6195281;23;20036;-82
2023/02/06 11:37:35;;;;;;;4.75;1.35;;;6.00;99.90;;;;;;6194262;23;20004;-79
2023/02/06 11:40:16;;;;;;;6.75;1.63;;;6.00;99.90;;;;;;6221176;23;20408;-79
2023/02/06 11:42:46;;;;;;;4.63;1.35;;;6.10;99.90;;;;;;6195105;23;20032;-79
2023/02/06 11:45:29;;;;;;;6.55;2.17;;;6.10;99.90;;;;;;6221232;23;20012;-79
2023/02/06 11:47:56;;;;;;;3.58;1.08;;;6.10;99.90;;;;;;6221553;23;20076;-79
2023/02/06 11:50:34;;;;;;;2.75;1.23;;;6.10;99.90;;;;;;6194966;23;20094;-79
2023/02/06 11:53:14;;;;;;;2.90;1.30;;;6.10;99.90;;;;;;6194564;23;20000;-79
2023/02/06 11:55:41;;;;;;;4.95;1.10;;;6.20;99.90;;;;;;6194837;23;20001;-78
2023/02/06 11:58:13;;;;;;;3.67;1.38;;;6.20;99.90;;;;;;6221010;23;19996;-79
2023/02/06 12:00:58;;;;;;;5.63;1.27;;;6.30;99.90;;;;;;6220861;23;19996;-79
2023/02/06 12:04:03;;;;;;;3.15;1.20;;;6.30;99.90;;;;;;6220651;23;20311;-79
2023/02/06 12:06:32;;;;;;;1.95;1.10;;;6.40;99.90;;;;;;6046981;23;20568;-79
2023/02/06 12:09:19;;;;;;;4.35;1.60;;;6.40;99.90;;;;;;6070729;23;20066;-78
2023/02/06 12:12:23;;;;;;;4.38;1.63;;;6.40;99.90;;;;;;6166571;23;20329;-80
2023/02/06 12:14:57;;;;;;;3.55;1.50;;;6.50;99.90;;;;;;6193943;23;20001;-79
2023/02/06 12:17:25;;;;;;;;;;;6.50;99.90;;;;;;6194281;23;20004;-79
2023/02/06 12:19:59;;;;;;;2.45;0.70;;;6.50;99.90;;;;;;6219352;23;19900;-78
2023/02/06 12:22:25;;;;;;;2.22;1.08;;;6.50;99.90;;;;;;6218707;23;20001;-84
2023/02/06 12:24:55;;;;;;;4.53;1.30;;;6.60;99.90;;;;;;6219756;23;20016;-78
2023/02/06 12:27:40;;;;;;;5.57;1.27;;;6.60;99.90;;;;;;6220487;23;20024;-80
2023/02/06 12:30:18;;;;;;;3.70;1.00;;;6.60;99.90;;;;;;6220049;23;20005;-77
2023/02/06 12:32:49;;;;;;;3.45;1.27;;;6.70;99.90;;;;;;6220846;23;20398;-76
2023/02/06 12:35:30;;;;;;;3.63;1.23;;;6.70;99.90;;;;;;6194278;23;20452;-76
2023/02/06 12:38:06;;;;;;;3.20;1.05;;;6.70;99.90;;;;;;6193286;23;20377;-76
2023/02/06 12:40:37;;;;;;;2.45;1.23;;;6.70;99.90;;;;;;6194230;23;20004;-76
2023/02/06 12:43:11;;;;;;;3.42;1.10;;;6.70;99.90;;;;;;6193918;23;20330;-77
2023/02/06 12:45:46;;;;;;;4.18;1.38;;;6.80;99.90;;;;;;6193971;23;20087;-78
2023/02/06 12:48:27;;;;;;;2.88;1.20;;;6.80;99.90;;;;;;6193876;23;20523;-78
2023/02/06 12:51:22;;;;;;;5.72;1.30;;;6.80;99.90;;;;;;6193813;23;20004;-78
2023/02/06 12:53:59;;;;;;;3.45;1.30;;;6.80;99.90;;;;;;6193603;23;20024;-77
2023/02/06 12:56:29;;;;;;;3.28;1.13;;;6.90;99.90;;;;;;6220339;23;20000;-77
2023/02/06 12:59:09;;;;;;;2.95;1.02;;;7.00;99.90;;;;;;6220063;23;20001;-77
2023/02/06 13:01:45;;;;;;;4.65;1.55;;;6.90;99.90;;;;;;6220531;23;20004;-77
2023/02/06 13:04:30;;;;;;;3.58;1.17;;;7.00;99.90;;;;;;6220220;23;20012;-77
2023/02/06 13:07:08;;;;;;;2.55;1.23;;;7.00;99.90;;;;;;6220208;23;20450;-77
2023/02/06 13:09:51;;;;;;;3.20;1.23;;;7.10;99.90;;;;;;6220536;23;20015;-77
2023/02/06 13:12:28;;;;;;;4.07;1.30;;;7.10;99.90;;;;;;6220434;23;20000;-76
2023/02/06 13:15:01;;;;;;;3.00;1.17;;;7.10;99.90;;;;;;6220113;23;20001;-76
2023/02/06 13:17:39;;;;;;;3.63;1.23;;;7.20;99.90;;;;;;6193843;23;20370;-76
2023/02/06 13:20:13;;;;;;;5.00;1.35;;;7.10;99.90;;;;;;6194243;23;20004;-76